Summitville, Colorado
Current Conditions -  °F | °C
As of 3:30 PM on Tuesday 21 Oct 2014 (Local Time) from KRCV Reporting Station
Overcast Overcast  
Wind Chill: 14°   Ceiling: 10000
Heat Index: 14°   Visibility: 10mi
Dew Point:   Wind: 3mph
Humidity: 45%   Direction: 140°SE
Pressure: 30.15"   Gusts: NA
Location:  37.6359°N, 106.449°W
Report Text: KRCV 212130Z AUTO 14003KT 10SM OVC100 14/02 A3015 RMK AO2 LTG DSNT W AND NW T01390022
Loading
Personal Weather Stations






























Interactive Weather Map
Tropical Storm Tracking
New forecast layout! Learn more

10-Day Weather Forecast

Advertisements
Track Severe Weather on mobile